Search for airport 
image banner adimage banner adimage banner ad
image banner ad

C80 - New Coalinga Muni

Located in Coalinga, United States

ICAO - C80, IATA -

Data provided by Airmate  

General information

Coordinates: N36°9'44" W120°17'41"
Elevation is 625 feet MSL.
Magnetic variation is 15° East
View others Airports in California

Operational data

Special qualification required
Current time UTC:
Current local time:
Weather at : KNLC - Lemoore Nas (Reeves Fld) ( 36 km )
METAR: KNLC 210956Z AUTO 33008KT 10SM CLR 21/07 A2979 RMK AO2 SLP085 T02110072
TAF: TAF KNLC 2107/2207 31009KT 9999 SKC QNH2977INS FM212300 24012KT 9999 SKC QNH2978INS AUTOMATED SENSOR METWATCH 2007 TIL 2014 T19/2112Z T39/2122Z FS30178
View NOTAMs / SUP AIP / TFR affecting this airport [VIEW]
Communications frequencies: [VIEW]

Runways:

RWY identifierQFULength (ft)Width (ft)SurfaceLDA (ft)
0112°247160OTHER
19191°247160OTHER
12130°5000100ASPH
30310°5000100ASPH

Airport contact information

Address: Coalinga United States

Satellite view of C80